KAPS

Port of South Louisiana Executive Regional Airport

Reserve, Louisiana, USA
METAR KAPS 231055Z AUTO 33006KT 10SM CLR 10/M01 A3013 RMK AO2 T00991007
Observed Flight Rules
Jan-23 @ 10:55 UTC (an hour ago) Visual Flight Rules
Wind Visibility Clouds
330° at 6 knots 10 miles
  • Clear skies
Temperatures Readings
Current 10°C / 50°F
Dewpoint -1°C / 30°F
Humidity 47%
Altimeter 30.13" Hg
Pressure 1020 hPa
Elevation 2
METAR KAPS 231055Z AUTO 33006KT 10SM CLR 10/M01 A3013 RMK AO2 T00991007
Observed Flight Rules
Jan-23 @ 10:55 UTC
(an hour ago)
VFR
Wind Visibility
330° at 6 knots 10 miles
Clouds
  • Clear skies
Temperature Dewpoint
10°C / 50°F -1°C / 30°F
Humidity Altimeter Pressure
47% 30.13" Hg 1020 hPa